Time;durP1;ratioP1;P1;durP2;ratioP2;P2;SDS_P1;SDS_P2;PMS_P1;PMS_P2;Temp;Humidity;BMP_temperature;BMP_pressure;BME280_temperature;BME280_humidity;BME280_pressure;Samples;Min_cycle;Max_cycle;Signal;HPM_P1;HPM_P2
2023/08/17 00:01:25;;;;;;;11.05;5.53;;;;;;;18.02;100.00;101584.75;5005697;28;20041;-69
2023/08/17 00:03:51;;;;;;;9.57;5.63;;;;;;;17.99;100.00;101590.41;5007527;28;20048;-69
2023/08/17 00:06:16;;;;;;;10.60;5.82;;;;;;;17.96;100.00;101592.59;5008841;28;20419;-69
2023/08/17 00:08:42;;;;;;;13.20;6.05;;;;;;;17.97;100.00;101597.66;4992191;28;20091;-69
2023/08/17 00:11:08;;;;;;;11.57;6.80;;;;;;;17.90;100.00;101600.19;5005100;28;20033;-69
2023/08/17 00:13:34;;;;;;;10.75;6.65;;;;;;;17.81;100.00;101590.78;5019660;28;20061;-69
2023/08/17 00:16:00;;;;;;;14.35;5.65;;;;;;;17.71;100.00;101587.63;4991306;28;20026;-70
2023/08/17 00:18:26;;;;;;;8.77;5.22;;;;;;;17.71;100.00;101588.44;5019034;28;20140;-69
2023/08/17 00:20:51;;;;;;;7.00;5.05;;;;;;;17.75;100.00;101588.09;5020349;28;20504;-69
2023/08/17 00:23:17;;;;;;;8.57;5.22;;;;;;;17.76;100.00;101590.50;5018522;28;20117;-69
2023/08/17 00:25:42;;;;;;;13.13;5.43;;;;;;;17.79;100.00;101592.75;5017559;28;20064;-69
2023/08/17 00:28:08;;;;;;;10.07;6.47;;;;;;;17.75;100.00;101588.09;5000928;28;20038;-69
2023/08/17 00:30:36;;;;;;;8.90;5.75;;;;;;;17.70;100.00;101586.00;4995643;28;20041;-69
2023/08/17 00:33:02;;;;;;;13.07;6.07;;;;;;;17.59;100.00;101579.41;5002280;28;20025;-69
2023/08/17 00:35:28;;;;;;;12.00;5.53;;;;;;;17.59;100.00;101584.66;5002245;28;20120;-69
2023/08/17 00:37:56;;;;;;;8.38;5.03;;;;;;;17.62;100.00;101575.63;5002283;28;20033;-69
2023/08/17 00:40:21;;;;;;;9.80;5.38;;;;;;;17.62;100.00;101579.06;4999597;28;20159;-69
2023/08/17 00:42:47;;;;;;;12.52;5.20;;;;;;;17.51;100.00;101582.94;5018275;28;20037;-69
2023/08/17 00:45:12;;;;;;;12.30;5.95;;;;;;;17.50;100.00;101583.16;5002780;28;20041;-69
2023/08/17 00:47:38;;;;;;;6.68;4.38;;;;;;;17.55;100.00;101574.72;5002522;28;20029;-69
2023/08/17 00:50:04;;;;;;;9.70;4.97;;;;;;;17.54;100.00;101570.47;5001188;28;20527;-69
2023/08/17 00:52:31;;;;;;;6.72;3.80;;;;;;;17.56;100.00;101569.31;4997187;28;20041;-69
2023/08/17 00:55:00;;;;;;;9.57;4.65;;;;;;;17.56;100.00;101566.69;5002482;28;20104;-69
2023/08/17 00:57:26;;;;;;;9.18;5.13;;;;;;;17.52;100.00;101575.91;5007388;28;20136;-70
2023/08/17 00:59:52;;;;;;;11.68;5.22;;;;;;;17.51;100.00;101579.53;5011241;28;20470;-69
2023/08/17 01:02:18;;;;;;;6.82;4.35;;;;;;;17.54;100.00;101580.94;5003399;28;20030;-69
2023/08/17 01:04:43;;;;;;;10.32;4.47;;;;;;;17.56;100.00;101574.56;5000635;28;20637;-69
2023/08/17 01:07:09;;;;;;;10.30;5.30;;;;;;;17.53;100.00;101561.78;5021272;28;20584;-69
2023/08/17 01:09:35;;;;;;;11.13;5.93;;;;;;;17.52;100.00;101560.19;5009541;28;20045;-69
2023/08/17 01:12:14;;;;;;;8.95;5.53;;;;;;;17.47;100.00;101554.66;5001834;28;20057;-69
2023/08/17 01:14:50;;;;;;;10.73;6.07;;;;;;;17.40;100.00;101557.19;5008257;28;20037;-69
2023/08/17 01:17:22;;;;;;;9.00;5.90;;;;;;;17.31;100.00;101556.50;4983538;28;20073;-69
2023/08/17 01:19:49;;;;;;;9.77;5.45;;;;;;;17.29;100.00;101555.03;4999282;28;20100;-69
2023/08/17 01:22:20;;;;;;;11.32;5.82;;;;;;;17.29;100.00;101550.63;4980360;28;20096;-69
2023/08/17 01:24:46;;;;;;;11.45;5.70;;;;;;;17.34;100.00;101557.13;4983936;28;20133;-69
2023/08/17 01:27:11;;;;;;;9.38;5.25;;;;;;;17.38;100.00;101561.00;4994903;28;20046;-69
2023/08/17 01:29:37;;;;;;;9.18;5.88;;;;;;;17.40;100.00;101559.00;4978508;28;20038;-69
2023/08/17 01:32:06;;;;;;;12.95;6.13;;;;;;;17.39;100.00;101560.03;4980447;28;20121;-69
2023/08/17 01:34:38;;;;;;;9.20;5.40;;;;;;;17.38;100.00;101563.63;4983968;28;20488;-68
2023/08/17 01:37:07;;;;;;;17.52;6.57;;;;;;;17.39;100.00;101563.44;5000123;28;20072;-69
2023/08/17 01:39:37;;;;;;;11.93;6.50;;;;;;;17.36;100.00;101568.25;4986709;28;20117;-69
2023/08/17 01:42:04;;;;;;;9.18;5.07;;;;;;;17.35;100.00;101567.44;4997382;28;20046;-69
2023/08/17 01:44:30;;;;;;;9.95;5.78;;;;;;;17.36;100.00;101571.66;5000658;28;20037;-69
2023/08/17 01:46:56;;;;;;;11.65;5.47;;;;;;;17.38;100.00;101576.72;4978452;28;20045;-68
2023/08/17 01:49:22;;;;;;;16.40;6.55;;;;;;;17.41;100.00;101576.38;4971699;28;20026;-69
2023/08/17 01:51:47;;;;;;;13.48;6.80;;;;;;;17.40;100.00;101572.13;4966280;28;20531;-68
2023/08/17 01:54:13;;;;;;;13.43;6.60;;;;;;;17.38;100.00;101564.44;4985390;28;20034;-69
2023/08/17 01:56:38;;;;;;;9.82;5.20;;;;;;;17.37;100.00;101570.69;4986681;28;20034;-69
2023/08/17 01:59:05;;;;;;;21.48;6.63;;;;;;;17.41;100.00;101568.53;4985244;28;20026;-68
2023/08/17 02:01:31;;;;;;;14.73;6.72;;;;;;;17.31;100.00;101571.41;4964914;28;20096;-68
2023/08/17 02:03:56;;;;;;;11.55;6.30;;;;;;;17.28;100.00;101562.09;4984239;28;20034;-68
2023/08/17 02:06:22;;;;;;;12.45;6.57;;;;;;;17.30;100.00;101554.06;4981004;28;20694;-69
2023/08/17 02:08:47;;;;;;;15.73;6.80;;;;;;;17.28;100.00;101559.47;4999010;28;20431;-69
2023/08/17 02:11:14;;;;;;;11.02;6.10;;;;;;;17.33;100.00;101564.19;4983454;28;20129;-69
2023/08/17 02:13:39;;;;;;;10.85;5.85;;;;;;;17.35;100.00;101569.22;4984743;28;20053;-68
2023/08/17 02:16:05;;;;;;;10.25;6.75;;;;;;;17.34;100.00;101562.38;4986013;28;20045;-69
2023/08/17 02:18:32;;;;;;;11.55;6.95;;;;;;;17.25;100.00;101551.16;5001537;28;20034;-68
2023/08/17 02:20:58;;;;;;;10.48;6.60;;;;;;;17.25;100.00;101554.63;4981155;28;20836;-69
2023/08/17 02:23:23;;;;;;;9.25;5.47;;;;;;;17.23;100.00;101553.97;4999093;28;20049;-68
2023/08/17 02:25:50;;;;;;;13.80;6.45;;;;;;;17.18;100.00;101548.47;4987894;28;20046;-69
2023/08/17 02:28:16;;;;;;;9.10;5.45;;;;;;;17.19;100.00;101550.06;4987610;28;20507;-69
2023/08/17 02:30:41;;;;;;;14.45;6.90;;;;;;;17.15;100.00;101551.44;4991083;28;20042;-69
2023/08/17 02:33:07;;;;;;;14.68;6.57;;;;;;;17.11;100.00;101550.97;4986474;28;20046;-68
2023/08/17 02:35:33;;;;;;;10.80;5.40;;;;;;;17.13;100.00;101548.19;4969134;28;20045;-68
2023/08/17 02:37:59;;;;;;;10.82;6.07;;;;;;;17.20;100.00;101548.28;4982434;28;20632;-69
2023/08/17 02:40:24;;;;;;;9.50;5.10;;;;;;;17.18;100.00;101547.63;4970909;28;20041;-69
2023/08/17 02:42:50;;;;;;;14.25;5.35;;;;;;;17.22;100.00;101551.53;4971874;28;20120;-69
2023/08/17 02:45:15;;;;;;;12.90;5.57;;;;;;;17.20;100.00;101543.84;4983767;28;20077;-68
2023/08/17 02:47:41;;;;;;;13.25;7.40;;;;;;;17.19;100.00;101544.03;5000362;28;21028;-68
2023/08/17 02:50:06;;;;;;;15.50;6.32;;;;;;;17.20;100.00;101545.66;4983150;28;20046;-68
2023/08/17 02:52:32;;;;;;;13.18;7.00;;;;;;;17.18;100.00;101539.78;4988752;28;20531;-68
2023/08/17 02:54:58;;;;;;;9.40;5.55;;;;;;;17.21;100.00;101539.41;4969233;28;20041;-68
2023/08/17 02:57:23;;;;;;;15.80;7.20;;;;;;;17.23;100.00;101533.00;4985355;28;20034;-69
2023/08/17 02:59:49;;;;;;;11.20;6.43;;;;;;;17.23;100.00;101537.44;4984364;28;20038;-69
2023/08/17 03:02:14;;;;;;;15.10;7.10;;;;;;;17.20;100.00;101533.38;4981714;28;20042;-68
2023/08/17 03:04:40;;;;;;;11.52;7.05;;;;;;;17.15;100.00;101534.91;5003183;28;20053;-69
2023/08/17 03:07:06;;;;;;;10.65;7.10;;;;;;;17.09;100.00;101537.25;4985543;28;20042;-69
2023/08/17 03:09:32;;;;;;;9.73;6.82;;;;;;;17.08;100.00;101532.19;5001829;28;20067;-68
2023/08/17 03:11:57;;;;;;;13.77;7.45;;;;;;;17.13;100.00;101540.31;4985161;28;20049;-69
2023/08/17 03:14:22;;;;;;;13.38;7.10;;;;;;;17.09;100.00;101531.22;5001501;28;20033;-68
2023/08/17 03:16:48;;;;;;;11.52;6.68;;;;;;;17.13;100.00;101530.66;4986979;28;20034;-68
2023/08/17 03:19:15;;;;;;;11.32;6.05;;;;;;;17.13;100.00;101535.91;4987237;28;20487;-68
2023/08/17 03:21:42;;;;;;;12.32;7.47;;;;;;;17.11;100.00;101527.41;4999768;28;22778;-69
2023/08/17 03:24:07;;;;;;;13.20;8.27;;;;;;;17.05;100.00;101528.13;4982079;28;20451;-69
2023/08/17 03:26:33;;;;;;;14.82;8.48;;;;;;;16.96;100.00;101525.78;4970961;28;20034;-69
2023/08/17 03:28:58;;;;;;;12.95;7.15;;;;;;;16.93;100.00;101529.56;5000448;28;20392;-69
2023/08/17 03:31:24;;;;;;;11.52;7.57;;;;;;;16.84;100.00;101535.88;4970681;28;20079;-69
2023/08/17 03:33:50;;;;;;;13.23;7.38;;;;;;;16.85;100.00;101546.19;4986263;28;20030;-69
2023/08/17 03:36:15;;;;;;;13.35;7.07;;;;;;;16.99;100.00;101538.50;4986617;28;20049;-69
2023/08/17 03:38:41;;;;;;;13.75;6.78;;;;;;;16.94;100.00;101536.44;4986070;28;20080;-68
2023/08/17 03:41:07;;;;;;;8.90;6.43;;;;;;;16.87;100.00;101541.56;4997251;28;20045;-68
2023/08/17 03:43:33;;;;;;;12.80;6.97;;;;;;;16.86;100.00;101532.09;4980176;28;20069;-68
2023/08/17 03:45:59;;;;;;;10.82;7.70;;;;;;;16.83;100.00;101542.94;4980522;28;20129;-69
2023/08/17 03:48:25;;;;;;;13.90;8.02;;;;;;;16.77;100.00;101535.78;4986292;28;20696;-68
2023/08/17 03:50:52;;;;;;;11.65;6.13;;;;;;;16.74;100.00;101523.84;4976330;28;20034;-68
2023/08/17 03:53:18;;;;;;;12.35;6.72;;;;;;;16.75;100.00;101535.13;5008501;28;20124;-69
2023/08/17 03:55:49;;;;;;;10.75;6.40;;;;;;;16.80;100.00;101542.44;4991853;28;20064;-69
2023/08/17 03:58:15;;;;;;;10.23;6.28;;;;;;;16.72;100.00;101535.47;5017178;28;20496;-70
2023/08/17 04:00:41;;;;;;;8.35;5.03;;;;;;;16.72;100.00;101538.09;5001669;28;20458;-69
2023/08/17 04:03:08;;;;;;;9.68;5.68;;;;;;;16.73;100.00;101537.13;5005239;28;20064;-69
2023/08/17 04:05:33;;;;;;;9.77;6.07;;;;;;;16.71;100.00;101542.53;4994737;28;20037;-69
2023/08/17 04:08:02;;;;;;;8.40;5.68;;;;;;;16.74;100.00;101543.97;5019651;28;20048;-69
2023/08/17 04:10:29;;;;;;;11.35;6.47;;;;;;;16.77;100.00;101542.81;5005999;28;20048;-69
2023/08/17 04:12:54;;;;;;;7.97;5.20;;;;;;;16.74;100.00;101549.22;5009386;28;20030;-69
2023/08/17 04:15:20;;;;;;;10.88;5.32;;;;;;;16.74;100.00;101549.22;5003876;28;20026;-69
2023/08/17 04:17:45;;;;;;;12.77;5.90;;;;;;;16.68;100.00;101553.34;5007408;28;20514;-69
2023/08/17 04:20:11;;;;;;;12.52;6.43;;;;;;;16.66;100.00;101555.34;4989561;28;20049;-69
2023/08/17 04:22:36;;;;;;;8.50;5.53;;;;;;;16.63;100.00;101558.34;5007899;28;20126;-69
2023/08/17 04:25:02;;;;;;;7.82;5.43;;;;;;;16.60;100.00;101558.66;4990492;28;20902;-69
2023/08/17 04:27:28;;;;;;;10.40;5.57;;;;;;;16.64;100.00;101561.75;5003071;28;20064;-70
2023/08/17 04:29:53;;;;;;;8.52;5.95;;;;;;;16.65;100.00;101561.59;5007644;28;20683;-70
2023/08/17 04:32:19;;;;;;;8.57;5.25;;;;;;;16.74;100.00;101559.69;5005386;28;20102;-69
2023/08/17 04:34:46;;;;;;;13.00;5.40;;;;;;;16.75;100.00;101566.56;4986698;28;20034;-69
2023/08/17 04:37:14;;;;;;;11.30;5.57;;;;;;;16.66;100.00;101559.78;5007204;28;20033;-70
2023/08/17 04:39:40;;;;;;;8.25;5.40;;;;;;;16.61;100.00;101564.72;5007226;28;20787;-69
2023/08/17 04:42:06;;;;;;;10.27;5.15;;;;;;;16.55;100.00;101567.03;5006322;28;20112;-70
2023/08/17 04:44:33;;;;;;;10.32;5.50;;;;;;;16.54;100.00;101567.25;5003582;28;20185;-69
2023/08/17 04:47:00;;;;;;;6.60;4.90;;;;;;;16.57;100.00;101568.69;5002783;28;20042;-69
2023/08/17 04:49:26;;;;;;;14.20;5.82;;;;;;;16.59;100.00;101569.31;4992478;28;20044;-70
2023/08/17 04:51:52;;;;;;;17.40;5.55;;;;;;;16.62;100.00;101571.59;5004337;28;20065;-69
2023/08/17 04:54:18;;;;;;;8.80;5.15;;;;;;;16.63;100.00;101574.03;5010334;28;20040;-69
2023/08/17 04:56:44;;;;;;;10.73;5.15;;;;;;;16.60;100.00;101573.56;4988848;28;20604;-69
2023/08/17 04:59:09;;;;;;;12.02;6.43;;;;;;;16.57;100.00;101574.72;4989591;28;20044;-69
2023/08/17 05:01:35;;;;;;;7.55;4.38;;;;;;;16.59;100.00;101579.78;5000159;28;20123;-70
2023/08/17 05:04:01;;;;;;;10.95;5.78;;;;;;;16.61;100.00;101576.00;5004913;28;20144;-69
2023/08/17 05:06:30;;;;;;;7.82;5.40;;;;;;;16.62;100.00;101579.44;5004383;28;20152;-69
2023/08/17 05:08:57;;;;;;;11.70;5.95;;;;;;;16.71;100.00;101568.72;5008005;28;20064;-69
2023/08/17 05:11:23;;;;;;;15.25;6.07;;;;;;;16.75;100.00;101569.19;5005303;28;20056;-69
2023/08/17 05:13:49;;;;;;;11.02;5.07;;;;;;;16.71;100.00;101567.91;5004563;28;20106;-69
2023/08/17 05:16:15;;;;;;;8.00;5.07;;;;;;;16.68;100.00;101568.25;5007558;28;20044;-69
2023/08/17 05:18:40;;;;;;;11.23;6.35;;;;;;;16.68;100.00;101573.50;5001821;28;20033;-70
2023/08/17 05:21:07;;;;;;;9.45;5.00;;;;;;;16.67;100.00;101571.84;4996266;28;20075;-69
2023/08/17 05:23:33;;;;;;;14.20;5.82;;;;;;;16.68;100.00;101576.13;5003637;28;20033;-69
2023/08/17 05:25:58;;;;;;;8.50;5.47;;;;;;;16.65;100.00;101573.84;4989462;28;20033;-69
2023/08/17 05:28:24;;;;;;;7.43;4.40;;;;;;;16.68;100.00;101576.13;5005551;28;21180;-69
2023/08/17 05:30:49;;;;;;;7.78;5.25;;;;;;;16.61;100.00;101573.38;5007039;28;20038;-70
2023/08/17 05:33:15;;;;;;;13.25;5.80;;;;;;;16.61;100.00;101576.00;5006871;28;20052;-69
2023/08/17 05:35:42;;;;;;;7.53;5.68;;;;;;;16.62;100.00;101576.81;4986222;28;20041;-69
2023/08/17 05:38:09;;;;;;;12.98;6.25;;;;;;;16.61;100.00;101580.41;5008302;28;20405;-69
2023/08/17 05:40:35;;;;;;;13.75;5.78;;;;;;;16.60;100.00;101581.44;5003503;28;20046;-69
2023/08/17 05:43:01;;;;;;;9.10;5.57;;;;;;;16.63;100.00;101581.06;5009132;28;20033;-69
2023/08/17 05:45:26;;;;;;;10.63;5.43;;;;;;;16.65;100.00;101573.84;5007058;28;20121;-69
2023/08/17 05:47:52;;;;;;;9.73;6.35;;;;;;;16.71;100.00;101571.34;5008801;28;20037;-69
2023/08/17 05:50:17;;;;;;;6.65;4.80;;;;;;;16.72;100.00;101570.31;5015992;28;20030;-70
2023/08/17 05:52:43;;;;;;;13.05;6.53;;;;;;;16.75;100.00;101579.66;5013686;28;20048;-70
2023/08/17 05:55:09;;;;;;;14.30;6.88;;;;;;;16.79;100.00;101575.69;5005576;28;20036;-69
2023/08/17 05:57:34;;;;;;;9.25;6.75;;;;;;;16.78;100.00;101571.41;5022917;28;20028;-69
2023/08/17 06:00:00;;;;;;;13.88;7.57;;;;;;;16.71;100.00;101581.00;5008350;28;20576;-69
2023/08/17 06:02:25;;;;;;;11.77;7.18;;;;;;;16.69;100.00;101578.56;5021097;28;20038;-69
2023/08/17 06:04:51;;;;;;;10.75;6.40;;;;;;;16.70;100.00;101593.25;5012482;28;20049;-69
2023/08/17 06:07:17;;;;;;;17.50;7.93;;;;;;;16.68;100.00;101584.78;5008825;28;20380;-69
2023/08/17 06:09:42;;;;;;;20.17;8.10;;;;;;;16.71;100.00;101589.66;5025546;28;20396;-69
2023/08/17 06:12:08;;;;;;;13.43;7.60;;;;;;;16.66;100.00;101588.56;5008725;28;20037;-69
2023/08/17 06:14:34;;;;;;;14.82;7.53;;;;;;;16.64;100.00;101583.50;5023049;28;20048;-69
2023/08/17 06:16:59;;;;;;;16.60;7.32;;;;;;;16.71;100.00;101589.66;5022330;28;20120;-70
2023/08/17 06:19:25;;;;;;;17.58;7.15;;;;;;;16.73;100.00;101585.06;5030363;28;20514;-70
2023/08/17 06:21:50;;;;;;;16.30;7.72;;;;;;;16.73;100.00;101597.34;5021195;28;20042;-69
2023/08/17 06:24:16;;;;;;;20.42;8.07;;;;;;;16.71;100.00;101587.03;4993943;28;20079;-69
2023/08/17 06:26:41;;;;;;;19.13;8.25;;;;;;;16.67;100.00;101588.41;4989127;28;20038;-69
2023/08/17 06:29:07;;;;;;;20.63;8.60;;;;;;;16.71;100.00;101594.91;4997551;28;20049;-69
2023/08/17 06:31:32;;;;;;;16.60;8.63;;;;;;;16.69;100.00;101594.28;5009154;28;20038;-69
2023/08/17 06:33:58;;;;;;;17.23;8.70;;;;;;;16.70;100.00;101589.84;5009855;28;20512;-69
2023/08/17 06:36:23;;;;;;;20.88;11.13;;;;;;;16.71;100.00;101583.63;5022609;28;20043;-69
2023/08/17 06:38:49;;;;;;;29.23;14.77;;;;;;;16.78;100.00;101592.38;5008114;28;20480;-69
2023/08/17 06:41:16;;;;;;;18.10;8.95;;;;;;;16.78;100.00;101594.19;5017474;28;20034;-70
2023/08/17 06:43:41;;;;;;;12.88;7.07;;;;;;;16.77;100.00;101584.72;5024713;28;20379;-70
2023/08/17 06:46:06;;;;;;;16.20;7.15;;;;;;;16.82;100.00;101593.69;5023486;28;20045;-69
2023/08/17 06:48:32;;;;;;;23.00;9.50;;;;;;;16.84;100.00;101586.47;5008491;28;20040;-69
2023/08/17 06:50:57;;;;;;;20.20;8.75;;;;;;;16.92;100.00;101582.97;5023505;28;20034;-70
2023/08/17 06:53:23;;;;;;;18.50;9.00;;;;;;;16.84;100.00;101580.41;5022768;28;20644;-69
2023/08/17 06:55:48;;;;;;;20.30;7.93;;;;;;;16.83;100.00;101584.03;5024759;28;20037;-70
2023/08/17 06:58:14;;;;;;;14.55;8.63;;;;;;;16.86;100.00;101584.50;5009081;28;20056;-69
2023/08/17 07:00:40;;;;;;;19.98;9.30;;;;;;;16.90;100.00;101590.19;5007408;28;20589;-69
2023/08/17 07:03:06;;;;;;;18.55;9.75;;;;;;;16.93;100.00;101595.06;5004508;28;20022;-69
2023/08/17 07:05:32;;;;;;;19.10;9.70;;;;;;;17.02;100.00;101593.19;5017903;28;20754;-70
2023/08/17 07:07:59;;;;;;;24.50;10.52;;;;;;;16.95;100.00;101589.63;5024748;28;20040;-70
2023/08/17 07:10:25;;;;;;;17.27;10.60;;;;;;;16.93;100.00;101589.81;5022522;28;20415;-69
2023/08/17 07:12:50;;;;;;;28.92;12.77;;;;;;;16.96;100.00;101596.53;5007114;28;20360;-69
2023/08/17 07:15:16;;;;;;;23.75;13.75;;;;;;;16.94;100.00;101594.06;5023500;28;20058;-70
2023/08/17 07:17:41;;;;;;;26.52;12.93;;;;;;;16.96;100.00;101596.53;4994425;28;20385;-69
2023/08/17 07:20:07;;;;;;;24.02;13.00;;;;;;;16.99;100.00;101599.59;5024937;28;21367;-70
2023/08/17 07:22:33;;;;;;;37.72;14.57;;;;;;;17.01;100.00;101596.78;5024200;28;20075;-69
2023/08/17 07:24:59;;;;;;;23.95;14.50;;;;;;;17.03;100.00;101600.06;5023858;28;20083;-69
2023/08/17 07:27:25;;;;;;;28.73;14.50;;;;;;;17.07;100.00;101604.75;5005353;28;20667;-69
2023/08/17 07:29:51;;;;;;;26.05;14.93;;;;;;;17.05;100.00;101613.78;5024908;28;20072;-69
2023/08/17 07:32:16;;;;;;;30.95;17.13;;;;;;;17.07;100.00;101612.59;5005019;28;20069;-69
2023/08/17 07:34:41;;;;;;;36.92;16.23;;;;;;;17.11;100.00;101608.63;5025051;28;20044;-69
2023/08/17 07:37:07;;;;;;;33.45;16.98;;;;;;;17.10;100.00;101612.25;5021448;28;20037;-70
2023/08/17 07:39:33;;;;;;;29.63;16.00;;;;;;;17.11;100.00;101615.69;5020164;28;20033;-69
2023/08/17 07:41:58;;;;;;;32.80;18.77;;;;;;;17.10;100.00;101611.41;5005255;28;20038;-69
2023/08/17 07:44:24;;;;;;;30.60;18.05;;;;;;;17.15;100.00;101608.28;5018464;28;20053;-69
2023/08/17 07:46:49;;;;;;;35.63;19.58;;;;;;;17.22;100.00;101609.19;5017390;28;20045;-69
2023/08/17 07:49:15;;;;;;;36.30;19.50;;;;;;;17.27;100.00;101612.06;5018629;28;20061;-69
2023/08/17 07:51:40;;;;;;;31.83;18.15;;;;;;;17.30;100.00;101615.13;5018654;28;20044;-69
2023/08/17 07:54:06;;;;;;;34.90;18.67;;;;;;;17.27;100.00;101612.06;5022121;28;20467;-69
2023/08/17 07:56:31;;;;;;;36.85;20.38;;;;;;;17.28;100.00;101616.31;5019968;28;20049;-69
2023/08/17 07:58:57;;;;;;;33.72;19.67;;;;;;;17.28;100.00;101626.81;5006861;28;20025;-68
2023/08/17 08:01:22;;;;;;;32.70;19.90;;;;;;;17.28;100.00;101625.00;5005967;28;20037;-69
2023/08/17 08:03:48;;;;;;;33.78;21.52;;;;;;;17.27;100.00;101622.53;5019749;28;20069;-69
2023/08/17 08:06:13;;;;;;;44.03;21.25;;;;;;;17.29;100.00;101623.19;5021963;28;20064;-69
2023/08/17 08:08:40;;;;;;;32.05;19.92;;;;;;;17.30;100.00;101620.38;5004027;28;20091;-69
2023/08/17 08:11:06;;;;;;;38.55;21.08;;;;;;;17.38;100.00;101621.28;5019575;28;20054;-69
2023/08/17 08:13:31;;;;;;;34.45;20.48;;;;;;;17.46;100.00;101626.44;5007812;28;20025;-69
2023/08/17 08:15:58;;;;;;;44.97;24.42;;;;;;;17.52;100.00;101617.88;5020479;28;20479;-69
2023/08/17 08:18:24;;;;;;;39.65;20.20;;;;;;;17.56;100.00;101628.81;5005537;28;20048;-69
2023/08/17 08:20:49;;;;;;;37.97;21.83;;;;;;;17.64;100.00;101621.63;4988842;28;20046;-69
2023/08/17 08:23:15;;;;;;;35.33;21.48;;;;;;;17.62;100.00;101621.00;5007537;28;20029;-69
2023/08/17 08:25:41;;;;;;;40.83;25.20;;;;;;;17.58;100.00;101614.50;4992802;28;20049;-68
2023/08/17 08:28:06;;;;;;;37.65;23.17;;;;;;;17.62;100.00;101621.00;5006824;28;20518;-68
2023/08/17 08:30:32;;;;;;;47.47;25.35;;;;;;;17.68;100.00;101612.41;5007748;28;20041;-69
2023/08/17 08:32:58;;;;;;;41.47;24.30;;;;;;;17.77;100.00;101615.75;5006563;28;20036;-69
2023/08/17 08:35:24;;;;;;;47.08;26.35;;;;;;;17.84;100.00;101619.28;5019136;28;20045;-69
2023/08/17 08:37:50;;;;;;;41.33;24.15;;;;;;;17.86;100.00;101617.31;5022594;28;20565;-69
2023/08/17 08:40:17;;;;;;;46.60;28.60;;;;;;;17.88;100.00;101617.13;5006475;28;20025;-69
2023/08/17 08:42:43;;;;;;;47.17;29.58;;;;;;;17.91;100.00;101624.59;4991184;28;20018;-69
2023/08/17 08:45:09;;;;;;;50.60;28.90;;;;;;;17.95;100.00;101625.03;5002759;28;20685;-69
2023/08/17 08:47:36;;;;;;;43.05;25.58;;;;;;;17.96;100.00;101621.44;5005311;28;20025;-69
2023/08/17 08:50:04;;;;;;;50.17;30.30;;;;;;;18.02;100.00;101620.69;5004885;28;20044;-68
2023/08/17 08:52:44;;;;;;;48.10;30.50;;;;;;;17.96;100.00;101616.19;4990805;28;20053;-69
2023/08/17 08:55:18;;;;;;;56.22;33.92;;;;;;;17.92;100.00;101617.56;5021029;28;20469;-69
2023/08/17 08:57:44;;;;;;;54.85;32.00;;;;;;;17.97;100.00;101618.63;4990115;28;20172;-68
2023/08/17 09:00:11;;;;;;;52.50;31.33;;;;;;;18.04;100.00;101624.75;5010533;28;20501;-68
2023/08/17 09:02:38;;;;;;;53.28;30.42;;;;;;;18.03;100.00;101617.88;5019296;28;20033;-68
2023/08/17 09:05:06;;;;;;;61.55;34.08;;;;;;;18.02;100.00;101620.69;5017977;28;20044;-69
2023/08/17 09:07:32;;;;;;;55.85;34.15;;;;;;;18.01;100.00;101612.03;5019169;28;20555;-68
2023/08/17 09:09:58;;;;;;;53.35;32.00;;;;;;;18.09;100.00;101618.97;5020204;28;20045;-68
2023/08/17 09:12:24;;;;;;;60.53;33.08;;;;;;;18.07;100.00;101619.13;4985434;28;20049;-69
2023/08/17 09:14:50;;;;;;;56.70;33.28;;;;;;;18.06;100.00;101614.91;5020557;28;20475;-69
2023/08/17 09:17:26;;;;;;;55.63;32.38;;;;;;;17.99;100.00;101610.56;5022097;28;20045;-69
2023/08/17 09:19:52;;;;;;;49.88;29.65;;;;;;;18.06;100.00;101606.19;5018766;28;20030;-68
2023/08/17 09:22:38;;;;;;;52.88;30.58;;;;;;;18.05;100.00;101604.59;5020639;28;20496;-69
2023/08/17 09:25:05;;;;;;;57.65;32.03;;;;;;;18.03;100.00;101607.41;5004463;28;20033;-70
2023/08/17 09:27:31;;;;;;;53.35;32.65;;;;;;;18.07;100.00;101602.59;5022320;28;20069;-68
2023/08/17 09:30:10;;;;;;;56.53;33.55;;;;;;;18.05;100.00;101605.41;5020137;28;20060;-68
2023/08/17 09:32:36;;;;;;;47.40;31.85;;;;;;;18.13;100.00;101601.03;5023310;28;20065;-68
2023/08/17 09:35:03;;;;;;;54.22;32.53;;;;;;;18.15;100.00;101604.28;5027711;28;20029;-68
2023/08/17 09:37:29;;;;;;;49.80;32.05;;;;;;;18.15;100.00;101601.66;5008611;28;20041;-68
2023/08/17 09:39:55;;;;;;;50.40;31.30;;;;;;;18.15;100.00;101602.47;5025848;28;20048;-68
2023/08/17 09:42:22;;;;;;;55.65;33.10;;;;;;;18.08;100.00;101605.03;5003498;28;20042;-68
2023/08/17 09:44:49;;;;;;;61.10;33.47;;;;;;;18.02;100.00;101605.75;5012379;28;20049;-68
2023/08/17 09:47:17;;;;;;;57.72;32.55;;;;;;;18.10;100.00;101604.81;5022823;28;20051;-68
2023/08/17 09:49:48;;;;;;;60.50;33.67;;;;;;;18.19;100.00;101601.09;5024875;28;20028;-68
2023/08/17 09:52:14;;;;;;;58.53;33.25;;;;;;;18.25;100.00;101604.78;5021522;28;20435;-69
2023/08/17 09:54:40;;;;;;;56.05;32.65;;;;;;;18.24;100.00;101593.47;5008986;28;20052;-68
2023/08/17 09:57:05;;;;;;;71.95;34.63;;;;;;;18.20;100.00;101592.22;5022836;28;20042;-68
2023/08/17 09:59:31;;;;;;;56.83;31.67;;;;;;;18.23;100.00;101591.84;5009922;28;20040;-68
2023/08/17 10:01:59;;;;;;;59.58;31.75;;;;;;;18.39;100.00;101579.47;4995221;28;20042;-69
2023/08/17 10:04:27;;;;;;;49.83;30.08;;;;;;;18.42;100.00;101581.69;5022191;28;20049;-68
2023/08/17 10:07:13;;;;;;;49.25;29.38;;;;;;;18.48;100.00;101579.16;4994018;28;20041;-68
2023/08/17 10:09:45;;;;;;;45.97;28.17;;;;;;;18.55;100.00;101575.75;5022565;28;20060;-68
2023/08/17 10:12:15;;;;;;;46.60;27.73;;;;;;;18.54;100.00;101574.16;5023209;28;20045;-68
2023/08/17 10:14:49;;;;;;;52.97;29.80;;;;;;;18.51;100.00;101564.00;5010408;28;20562;-68
2023/08/17 10:17:30;;;;;;;53.45;30.13;;;;;;;18.48;100.00;101565.22;5010834;28;20042;-68
2023/08/17 10:19:58;;;;;;;53.65;31.60;;;;;;;18.53;100.00;101562.00;5021121;28;20040;-68
2023/08/17 10:22:46;;;;;;;45.08;28.58;;;;;;;18.55;100.00;101563.44;5020287;28;20064;-68
2023/08/17 10:25:13;;;;;;;52.28;30.40;;;;;;;18.59;100.00;101577.00;4980783;28;20067;-68
2023/08/17 10:27:41;;;;;;;46.17;30.27;;;;;;;18.70;100.00;101581.72;5024430;28;20040;-69
2023/08/17 10:30:11;;;;;;;46.20;30.77;;;;;;;18.59;100.00;101579.63;5025726;28;20037;-69
2023/08/17 10:32:37;;;;;;;50.55;30.20;;;;;;;18.68;100.00;101578.47;5007213;28;20037;-68
2023/08/17 10:35:04;;;;;;;52.22;29.80;;;;;;;18.68;100.00;101583.72;5008233;28;20824;-68
2023/08/17 10:37:31;;;;;;;48.97;30.67;;;;;;;18.70;100.00;101586.97;5021560;28;20064;-68
2023/08/17 10:39:57;;;;;;;55.10;30.58;;;;;;;18.83;100.00;101592.34;5009208;28;20025;-68
2023/08/17 10:42:36;;;;;;;48.92;29.27;;;;;;;18.74;100.00;101584.78;5019157;28;20506;-68
2023/08/17 10:45:21;;;;;;;53.33;30.02;;;;;;;18.74;100.00;101585.63;5010235;28;20038;-68
2023/08/17 10:47:46;;;;;;;49.05;31.17;;;;;;;18.74;100.00;101582.16;5022606;28;20478;-68
2023/08/17 10:50:24;;;;;;;50.85;32.08;;;;;;;18.75;100.00;101581.16;5006482;28;20037;-68
2023/08/17 10:52:53;;;;;;;47.00;28.27;;;;;;;18.73;100.00;101577.94;5008122;28;20026;-68
2023/08/17 10:55:35;;;;;;;52.45;31.60;;;;;;;18.78;100.00;101578.13;5017800;28;20627;-68
2023/08/17 10:58:01;;;;;;;48.15;31.63;;;;;;;18.75;100.00;101587.22;5005253;28;20029;-68
2023/08/17 11:00:33;;;;;;;52.13;31.23;;;;;;;18.80;100.00;101589.31;5021088;28;20126;-68
2023/08/17 11:03:01;;;;;;;56.67;31.90;;;;;;;18.79;100.00;101580.59;5016654;28;20418;-68
2023/08/17 11:05:52;;;;;;;57.45;33.90;;;;;;;18.73;100.00;101589.22;5020008;28;20108;-68